createdAt,value
2018-02-02T00:00:22.277Z,92.10
2018-02-02T00:02:50.969Z,92.00
2018-02-02T00:05:19.655Z,92.00
2018-02-02T00:07:48.396Z,92.10
2018-02-02T00:10:17.084Z,92.00
2018-02-02T00:12:45.803Z,91.90
2018-02-02T00:15:14.519Z,91.90
2018-02-02T00:17:43.174Z,92.10
2018-02-02T00:20:11.888Z,91.90
2018-02-02T00:22:40.584Z,91.80
2018-02-02T00:25:09.246Z,92.00
2018-02-02T00:27:37.935Z,92.00
2018-02-02T00:30:06.636Z,92.20
2018-02-02T00:32:35.294Z,92.00
2018-02-02T00:35:03.973Z,91.90
2018-02-02T00:37:32.664Z,92.00
2018-02-02T00:40:01.379Z,92.00
2018-02-02T00:42:30.240Z,92.00
2018-02-02T00:44:58.949Z,91.80
2018-02-02T00:47:26.972Z,92.20
2018-02-02T00:49:56.428Z,91.90
2018-02-02T00:52:25.125Z,91.90
2018-02-02T00:54:53.788Z,91.90
2018-02-02T00:57:22.520Z,92.00
2018-02-02T00:59:51.994Z,92.10
2018-02-02T01:02:20.746Z,92.10
2018-02-02T01:04:49.424Z,91.80
2018-02-02T01:07:18.121Z,91.60
2018-02-02T01:09:46.833Z,91.80
2018-02-02T01:12:15.544Z,92.00
2018-02-02T01:14:44.446Z,91.80
2018-02-02T01:17:13.130Z,92.00
2018-02-02T01:19:41.832Z,92.10
2018-02-02T01:22:11.312Z,92.00
2018-02-02T01:24:40.028Z,92.00
2018-02-02T01:27:09.486Z,92.40
2018-02-02T01:29:38.162Z,92.40
2018-02-02T01:32:06.862Z,92.40
2018-02-02T01:34:35.566Z,92.40
2018-02-02T01:37:04.252Z,92.50
2018-02-02T01:39:32.964Z,92.60
2018-02-02T01:42:02.397Z,92.60
2018-02-02T01:44:31.117Z,92.50
2018-02-02T01:46:59.850Z,92.50
2018-02-02T01:49:29.461Z,92.70
2018-02-02T01:51:58.889Z,92.80
2018-02-02T01:54:27.858Z,92.80
2018-02-02T01:56:56.573Z,92.90
2018-02-02T01:59:25.305Z,92.80
2018-02-02T02:01:54.041Z,92.90
2018-02-02T02:04:22.721Z,92.90
2018-02-02T02:06:51.396Z,92.80
2018-02-02T02:09:20.195Z,92.90
2018-02-02T02:11:48.883Z,92.90
2018-02-02T02:14:18.320Z,93.20
2018-02-02T02:16:47.033Z,93.20
2018-02-02T02:19:15.750Z,93.20
2018-02-02T02:21:45.227Z,93.10
2018-02-02T02:24:13.906Z,93.10
2018-02-02T02:26:42.860Z,93.20
2018-02-02T02:29:11.565Z,93.20
2018-02-02T02:31:40.317Z,93.30
2018-02-02T02:34:09.009Z,93.20
2018-02-02T02:36:37.766Z,93.20
2018-02-02T02:39:06.509Z,93.20
2018-02-02T02:41:35.232Z,93.20
2018-02-02T02:44:03.931Z,93.70
2018-02-02T02:46:32.920Z,93.20
2018-02-02T02:49:01.635Z,93.20
2018-02-02T02:51:31.309Z,93.20
2018-02-02T02:54:00.027Z,93.20
2018-02-02T02:56:28.894Z,93.10
2018-02-02T02:58:57.585Z,93.20
2018-02-02T03:01:26.258Z,93.20
2018-02-02T03:03:54.965Z,93.20
2018-02-02T03:06:23.658Z,93.20
2018-02-02T03:08:52.616Z,92.90
2018-02-02T03:11:21.325Z,93.00
2018-02-02T03:13:50.037Z,92.90
2018-02-02T03:16:19.531Z,93.00
2018-02-02T03:18:48.986Z,93.00
2018-02-02T03:21:17.902Z,93.10
2018-02-02T03:23:46.944Z,93.00
2018-02-02T03:26:15.637Z,93.10
2018-02-02T03:28:44.332Z,93.20
2018-02-02T03:31:13.014Z,93.30
2018-02-02T03:33:41.692Z,93.30
2018-02-02T03:36:10.432Z,93.30
2018-02-02T03:38:39.133Z,93.20
2018-02-02T03:41:07.811Z,93.30
2018-02-02T03:43:36.544Z,93.30
2018-02-02T03:46:04.568Z,93.40
2018-02-02T03:48:33.268Z,93.20
2018-02-02T03:51:01.952Z,93.20
2018-02-02T03:53:30.633Z,93.20
2018-02-02T03:55:59.324Z,93.50
2018-02-02T03:58:27.598Z,93.60
2018-02-02T04:00:56.515Z,93.50
2018-02-02T04:03:25.980Z,93.60
2018-02-02T04:05:54.688Z,93.60
2018-02-02T04:08:23.393Z,93.60
2018-02-02T04:10:52.857Z,93.50
2018-02-02T04:13:21.595Z,93.50
2018-02-02T04:15:51.085Z,93.50
2018-02-02T04:18:19.752Z,93.50
2018-02-02T04:20:48.454Z,93.60
2018-02-02T04:23:17.197Z,93.60
2018-02-02T04:25:45.885Z,93.50
2018-02-02T04:28:14.807Z,93.60
2018-02-02T04:30:43.728Z,93.70
2018-02-02T04:33:13.240Z,93.60
2018-02-02T04:35:42.550Z,93.50
2018-02-02T04:38:11.043Z,93.50
2018-02-02T04:40:39.781Z,93.50
2018-02-02T04:43:08.504Z,93.50
2018-02-02T04:45:37.240Z,93.50
2018-02-02T04:48:06.074Z,93.50
2018-02-02T04:50:34.769Z,93.70
2018-02-02T04:53:04.306Z,93.90
2018-02-02T04:55:33.041Z,93.90
2018-02-02T04:58:01.437Z,93.90
2018-02-02T05:00:30.935Z,93.60
2018-02-02T05:02:59.873Z,93.60
2018-02-02T05:05:28.599Z,93.60
2018-02-02T05:07:57.323Z,93.60
2018-02-02T05:10:26.046Z,93.60
2018-02-02T05:12:54.740Z,93.60
2018-02-02T05:15:23.526Z,93.70
2018-02-02T05:17:52.268Z,93.60
2018-02-02T05:20:20.637Z,93.50
2018-02-02T05:22:49.410Z,93.40
2018-02-02T05:25:18.392Z,93.60
2018-02-02T05:27:47.384Z,93.60
2018-02-02T05:30:16.340Z,93.60
2018-02-02T05:32:45.037Z,94.10
2018-02-02T05:35:13.760Z,93.80
2018-02-02T05:37:42.500Z,93.80
2018-02-02T05:40:11.468Z,93.80
2018-02-02T05:42:40.973Z,93.90
2018-02-02T05:45:10.153Z,93.80
2018-02-02T05:47:39.140Z,93.80
2018-02-02T05:50:07.837Z,93.70
2018-02-02T05:52:36.590Z,93.60
2018-02-02T05:55:04.690Z,93.60
2018-02-02T05:57:33.446Z,93.60
2018-02-02T06:00:02.389Z,93.60
2018-02-02T06:02:32.084Z,93.70
2018-02-02T06:05:00.838Z,93.50
2018-02-02T06:07:29.539Z,93.50
2018-02-02T06:09:58.248Z,93.40
2018-02-02T06:12:27.186Z,93.40
2018-02-02T06:14:55.912Z,93.40
2018-02-02T06:17:24.630Z,93.50
2018-02-02T06:19:54.175Z,93.60
2018-02-02T06:22:22.584Z,93.60
2018-02-02T06:24:51.347Z,93.80
2018-02-02T06:27:20.131Z,93.80
2018-02-02T06:29:48.872Z,94.00
2018-02-02T06:32:17.881Z,93.90
2018-02-02T06:34:47.588Z,93.90
2018-02-02T06:37:17.049Z,94.00
2018-02-02T06:39:46.591Z,94.30
2018-02-02T06:42:15.297Z,94.00
2018-02-02T06:44:44.307Z,94.30
2018-02-02T06:47:13.032Z,94.00
2018-02-02T06:49:41.823Z,93.70
2018-02-02T06:52:10.758Z,93.70
2018-02-02T06:54:40.292Z,93.60
2018-02-02T06:57:08.604Z,93.60
2018-02-02T06:59:38.046Z,93.50
2018-02-02T07:02:07.779Z,93.30
2018-02-02T07:04:36.699Z,93.30
2018-02-02T07:07:05.588Z,93.40
2018-02-02T07:09:35.312Z,93.20
2018-02-02T07:12:04.003Z,93.20
2018-02-02T07:14:32.834Z,93.40
2018-02-02T07:17:02.564Z,93.10
2018-02-02T07:19:32.107Z,93.00
2018-02-02T07:22:00.848Z,93.00
2018-02-02T07:24:30.597Z,93.10
2018-02-02T07:26:59.598Z,93.10
2018-02-02T07:29:28.398Z,93.00
2018-02-02T07:31:56.928Z,92.90
2018-02-02T07:34:26.656Z,92.80
2018-02-02T07:36:56.143Z,92.80
2018-02-02T07:39:25.300Z,92.60
2018-02-02T07:41:54.076Z,92.70
2018-02-02T07:44:22.839Z,92.60
2018-02-02T07:46:51.659Z,92.50
2018-02-02T07:49:20.404Z,92.60
2018-02-02T07:51:49.360Z,92.40
2018-02-02T07:54:19.727Z,92.20
2018-02-02T07:56:48.682Z,92.40
2018-02-02T07:59:17.645Z,92.10
2018-02-02T08:01:46.665Z,92.10
2018-02-02T08:04:15.353Z,91.90
2018-02-02T08:06:44.303Z,91.70
2018-02-02T08:09:13.288Z,91.90
2018-02-02T08:11:42.312Z,91.80
2018-02-02T08:14:11.271Z,91.60
2018-02-02T08:16:40.013Z,91.30
2018-02-02T08:19:08.984Z,91.10
2018-02-02T08:21:37.969Z,91.10
2018-02-02T08:24:06.491Z,91.10
2018-02-02T08:26:36.006Z,91.20
2018-02-02T08:29:04.519Z,91.10
2018-02-02T08:34:06.393Z,91.00
2018-02-02T08:36:35.317Z,91.00
2018-02-02T08:39:03.247Z,90.90
2018-02-02T08:41:32.870Z,90.80
2018-02-02T08:44:01.654Z,90.80
2018-02-02T08:46:30.621Z,90.80
2018-02-02T08:48:59.401Z,91.00
2018-02-02T08:51:28.400Z,90.80
2018-02-02T08:53:57.391Z,90.90
2018-02-02T08:56:26.109Z,90.60
2018-02-02T08:58:54.493Z,90.80
2018-02-02T09:01:28.671Z,90.80
2018-02-02T09:03:57.367Z,90.80
2018-02-02T09:06:26.124Z,90.70
2018-02-02T09:08:55.917Z,90.80
2018-02-02T09:11:24.884Z,90.80
2018-02-02T09:13:53.812Z,90.90
2018-02-02T09:16:22.765Z,90.60
2018-02-02T09:18:51.728Z,90.50
2018-02-02T09:21:20.030Z,90.20
2018-02-02T09:23:49.051Z,90.30
2018-02-02T09:26:17.853Z,90.30
2018-02-02T09:28:46.806Z,90.20
2018-02-02T09:31:16.344Z,90.70
2018-02-02T09:33:45.291Z,90.70
2018-02-02T09:36:13.764Z,90.70
2018-02-02T09:38:42.529Z,90.60
2018-02-02T09:41:12.249Z,90.60
2018-02-02T09:43:41.229Z,90.60
2018-02-02T09:46:09.984Z,90.20
2018-02-02T09:48:38.761Z,90.20
2018-02-02T09:51:08.315Z,90.30
2018-02-02T09:53:37.305Z,90.30
2018-02-02T09:56:06.238Z,90.40
2018-02-02T09:58:35.214Z,90.40
2018-02-02T10:01:04.181Z,90.50
2018-02-02T10:03:32.979Z,90.40
2018-02-02T10:06:01.761Z,90.40
2018-02-02T10:08:30.561Z,90.40
2018-02-02T10:10:59.486Z,90.30
2018-02-02T10:13:28.307Z,90.20
2018-02-02T10:15:57.017Z,90.50
2018-02-02T10:18:25.685Z,90.50
2018-02-02T10:20:54.661Z,90.30
2018-02-02T10:23:24.172Z,90.40
2018-02-02T10:25:52.913Z,90.40
2018-02-02T10:28:21.707Z,90.30
2018-02-02T10:30:50.644Z,90.20
2018-02-02T10:33:20.337Z,90.20
2018-02-02T10:35:49.122Z,90.20
2018-02-02T10:38:18.045Z,90.20
2018-02-02T10:40:46.794Z,90.50
2018-02-02T10:43:15.421Z,90.30
2018-02-02T10:45:44.208Z,90.10
2018-02-02T10:48:13.688Z,90.40
2018-02-02T10:50:42.464Z,90.40
2018-02-02T10:53:11.220Z,90.50
2018-02-02T10:55:39.905Z,90.30
2018-02-02T10:58:08.694Z,90.50
2018-02-02T11:03:55.109Z,90.20
2018-02-02T11:06:24.545Z,89.70
2018-02-02T11:08:53.271Z,89.70
2018-02-02T11:11:21.998Z,90.00
2018-02-02T11:13:50.647Z,89.90
2018-02-02T11:16:20.094Z,89.30
2018-02-02T11:18:48.996Z,89.30
2018-02-02T11:21:17.672Z,89.10
2018-02-02T11:23:46.357Z,89.10
2018-02-02T11:26:15.043Z,88.80
2018-02-02T11:28:43.722Z,88.90
2018-02-02T11:31:12.392Z,89.20
2018-02-02T11:33:41.089Z,90.10
2018-02-02T11:36:09.793Z,89.80
2018-02-02T11:38:38.682Z,90.00
2018-02-02T11:41:07.594Z,89.70
2018-02-02T11:43:36.356Z,89.90
2018-02-02T11:46:05.030Z,89.70
2018-02-02T11:48:34.516Z,89.40
2018-02-02T11:51:03.265Z,89.40
2018-02-02T11:53:31.925Z,88.70
2018-02-02T11:56:00.655Z,88.90
2018-02-02T11:58:30.118Z,90.00
2018-02-02T12:00:58.584Z,90.00
2018-02-02T12:03:27.314Z,89.50
2018-02-02T12:05:55.801Z,88.30
2018-02-02T12:08:24.521Z,88.40
2018-02-02T12:10:53.267Z,88.30
2018-02-02T12:13:21.961Z,88.70
2018-02-02T12:15:50.630Z,88.40
2018-02-02T12:18:19.164Z,87.90
2018-02-02T12:20:47.671Z,88.10
2018-02-02T12:23:28.121Z,87.30
2018-02-02T12:26:03.243Z,87.90
2018-02-02T12:28:38.170Z,88.00
2018-02-02T12:31:25.423Z,87.90
2018-02-02T12:33:54.754Z,87.20
2018-02-02T12:36:24.759Z,87.20
2018-02-02T12:38:53.313Z,86.90
2018-02-02T12:41:22.593Z,86.70
2018-02-02T12:43:51.741Z,86.70
2018-02-02T12:46:20.752Z,86.50
2018-02-02T12:48:59.708Z,86.40
2018-02-02T12:51:28.673Z,86.60
2018-02-02T12:53:57.562Z,86.60
2018-02-02T12:56:26.431Z,86.80
2018-02-02T12:58:55.441Z,87.30
2018-02-02T13:01:24.362Z,86.80
2018-02-02T13:03:53.109Z,87.10
2018-02-02T13:06:22.332Z,87.30
2018-02-02T13:08:51.064Z,86.90
2018-02-02T13:11:20.561Z,87.70
2018-02-02T13:13:49.242Z,87.70
2018-02-02T13:16:17.949Z,87.80
2018-02-02T13:18:46.613Z,87.20
2018-02-02T13:21:16.108Z,87.60
2018-02-02T13:23:44.790Z,87.60
2018-02-02T13:26:12.816Z,87.60
2018-02-02T13:28:41.548Z,88.10
2018-02-02T13:31:10.286Z,87.90
2018-02-02T13:33:39.145Z,87.50
2018-02-02T13:36:07.804Z,87.30
2018-02-02T13:38:36.473Z,86.90
2018-02-02T13:41:05.213Z,87.40
2018-02-02T13:43:33.928Z,86.50
2018-02-02T13:46:03.340Z,86.20
2018-02-02T13:48:32.285Z,86.20
2018-02-02T13:51:01.262Z,86.10
2018-02-02T13:53:30.861Z,86.00
2018-02-02T13:55:59.518Z,86.00
2018-02-02T13:58:28.216Z,86.90
2018-02-02T14:00:56.908Z,87.30
2018-02-02T14:03:25.576Z,87.30
2018-02-02T14:05:55.047Z,87.60
2018-02-02T14:08:23.794Z,87.60
2018-02-02T14:10:53.257Z,88.50
2018-02-02T14:13:22.020Z,88.50
2018-02-02T14:15:50.747Z,89.10
2018-02-02T14:18:20.263Z,88.90
2018-02-02T14:20:49.032Z,88.90
2018-02-02T14:23:17.697Z,89.60
2018-02-02T14:25:46.428Z,89.30
2018-02-02T14:28:15.170Z,89.30
2018-02-02T14:30:43.859Z,89.50
2018-02-02T14:33:12.545Z,90.30
2018-02-02T14:35:41.305Z,89.40
2018-02-02T14:38:10.026Z,89.10
2018-02-02T14:40:38.703Z,88.80
2018-02-02T14:43:07.417Z,89.00
2018-02-02T14:45:36.853Z,89.50
2018-02-02T14:48:05.581Z,89.40
2018-02-02T14:50:34.324Z,89.20
2018-02-02T14:53:02.994Z,89.60
2018-02-02T14:55:32.431Z,90.60
2018-02-02T14:58:01.141Z,90.60
2018-02-02T15:00:29.846Z,90.50
2018-02-02T15:02:58.529Z,90.30
2018-02-02T15:05:27.227Z,90.50
2018-02-02T15:07:55.927Z,90.50
2018-02-02T15:10:25.404Z,90.70
2018-02-02T15:12:54.322Z,90.70
2018-02-02T15:15:23.620Z,90.30
2018-02-02T15:17:52.932Z,90.50
2018-02-02T15:20:21.642Z,90.50
2018-02-02T15:25:52.698Z,90.90
2018-02-02T15:28:21.441Z,91.40
2018-02-02T15:30:50.129Z,91.50
2018-02-02T15:33:18.825Z,91.60
2018-02-02T15:35:47.501Z,91.50
2018-02-02T15:38:16.189Z,91.60
2018-02-02T15:40:44.873Z,91.60
2018-02-02T15:43:13.558Z,91.60
2018-02-02T15:45:42.486Z,91.80
2018-02-02T15:48:10.654Z,91.80
2018-02-02T15:50:39.320Z,91.80
2018-02-02T15:53:07.828Z,91.80
2018-02-02T15:55:36.523Z,91.90
2018-02-02T15:58:05.966Z,92.40
2018-02-02T16:00:34.609Z,92.40
2018-02-02T16:03:03.050Z,92.50
2018-02-02T16:05:31.754Z,92.60
2018-02-02T16:08:00.658Z,92.60
2018-02-02T16:10:30.188Z,92.80
2018-02-02T16:12:58.216Z,92.80
2018-02-02T16:15:26.893Z,92.60
2018-02-02T16:17:55.593Z,92.90
2018-02-02T16:20:24.293Z,93.10
2018-02-02T16:22:53.753Z,93.10
2018-02-02T16:25:22.465Z,93.10
2018-02-02T16:27:51.261Z,93.30
2018-02-02T16:30:20.714Z,93.20
2018-02-02T16:32:49.461Z,93.20
2018-02-02T16:35:18.221Z,93.20
2018-02-02T16:37:46.769Z,93.20
2018-02-02T16:40:15.208Z,93.20
2018-02-02T16:42:43.898Z,93.00
2018-02-02T16:45:12.402Z,93.10
2018-02-02T16:47:41.112Z,93.10
2018-02-02T16:50:09.633Z,93.10
2018-02-02T16:52:38.324Z,93.20
2018-02-02T16:55:07.129Z,93.30
2018-02-02T16:57:35.773Z,93.40
2018-02-02T17:00:04.450Z,93.40
2018-02-02T17:02:33.650Z,93.20
2018-02-02T17:05:02.185Z,93.30
2018-02-02T17:07:30.645Z,93.20
2018-02-02T17:09:59.229Z,93.30
2018-02-02T17:12:27.806Z,93.10
2018-02-02T17:14:56.485Z,93.10
2018-02-02T17:17:25.372Z,93.20
2018-02-02T17:19:54.098Z,93.20
2018-02-02T17:22:22.769Z,93.30
2018-02-02T17:24:51.461Z,93.30
2018-02-02T17:27:20.177Z,93.30
2018-02-02T17:29:49.597Z,93.50
2018-02-02T17:32:18.262Z,93.50
2018-02-02T17:34:46.969Z,93.50
2018-02-02T17:37:15.701Z,93.40
2018-02-02T17:39:44.381Z,93.50
2018-02-02T17:42:13.098Z,93.60
2018-02-02T17:44:41.776Z,93.50
2018-02-02T17:47:10.469Z,93.50
2018-02-02T17:49:39.210Z,93.70
2018-02-02T17:52:07.972Z,93.60
2018-02-02T17:54:36.635Z,93.60
2018-02-02T17:57:05.342Z,93.60
2018-02-02T17:59:34.628Z,93.80
2018-02-02T18:02:20.742Z,93.70
2018-02-02T18:04:50.289Z,93.50
2018-02-02T18:07:18.816Z,93.50
2018-02-02T18:09:47.533Z,93.70
2018-02-02T18:12:16.274Z,93.70
2018-02-02T18:14:44.990Z,93.70
2018-02-02T18:17:14.466Z,93.50
2018-02-02T18:19:42.925Z,93.50
2018-02-02T18:22:11.597Z,93.50
2018-02-02T18:24:40.318Z,93.60
2018-02-02T18:27:09.006Z,93.60
2018-02-02T18:29:37.696Z,93.60
2018-02-02T18:32:05.728Z,93.50
2018-02-02T18:34:34.427Z,93.50
2018-02-02T18:37:03.172Z,93.60
2018-02-02T18:39:32.644Z,93.80
2018-02-02T18:42:01.372Z,93.80
2018-02-02T18:44:30.161Z,93.90
2018-02-02T18:46:59.677Z,93.90
2018-02-02T18:49:28.701Z,94.20
2018-02-02T18:51:57.421Z,93.80
2018-02-02T18:54:26.131Z,93.80
2018-02-02T18:56:54.170Z,93.80
2018-02-02T18:59:22.866Z,93.80
2018-02-02T19:01:51.538Z,94.00
2018-02-02T19:04:20.322Z,94.00
2018-02-02T19:06:49.949Z,94.00
2018-02-02T19:09:18.634Z,94.00
2018-02-02T19:11:47.325Z,94.10
2018-02-02T19:14:16.042Z,94.40
2018-02-02T19:16:45.545Z,94.10
2018-02-02T19:19:14.993Z,94.30
2018-02-02T19:21:43.701Z,94.20
2018-02-02T19:24:12.396Z,94.30
2018-02-02T19:26:41.102Z,94.20
2018-02-02T19:29:09.818Z,94.30
2018-02-02T19:31:38.505Z,94.40
2018-02-02T19:34:07.215Z,94.40
2018-02-02T19:36:35.941Z,94.40
2018-02-02T19:39:03.845Z,94.20
2018-02-02T19:41:32.640Z,94.00
2018-02-02T19:44:01.692Z,94.10
2018-02-02T19:46:30.504Z,94.10
2018-02-02T19:48:59.304Z,94.10
2018-02-02T19:51:28.051Z,94.10
2018-02-02T19:53:57.029Z,94.30
2018-02-02T19:56:25.803Z,94.50
2018-02-02T19:58:54.342Z,94.50
2018-02-02T20:01:23.117Z,94.50
2018-02-02T20:03:51.806Z,94.40
2018-02-02T20:06:20.533Z,94.40
2018-02-02T20:08:50.468Z,94.30
2018-02-02T20:11:19.334Z,94.30
2018-02-02T20:13:47.725Z,94.30
2018-02-02T20:16:16.737Z,94.50
2018-02-02T20:18:45.537Z,94.60
2018-02-02T20:21:15.320Z,94.50
2018-02-02T20:23:44.918Z,94.40
2018-02-02T20:26:14.369Z,94.20
2018-02-02T20:28:43.093Z,94.20
2018-02-02T20:31:11.777Z,94.30
2018-02-02T20:33:40.766Z,94.40
2018-02-02T20:36:10.269Z,94.60
2018-02-02T20:38:39.188Z,94.60
2018-02-02T20:41:08.669Z,94.60
2018-02-02T20:43:37.806Z,94.60
2018-02-02T20:46:06.743Z,94.70
2018-02-02T20:48:35.490Z,94.60
2018-02-02T20:51:03.953Z,94.60
2018-02-02T20:53:32.826Z,94.60
2018-02-02T20:56:01.556Z,94.50
2018-02-02T20:58:30.563Z,94.50
2018-02-02T21:00:59.392Z,94.50
2018-02-02T21:03:28.346Z,94.60
2018-02-02T21:05:57.228Z,94.50
2018-02-02T21:08:26.191Z,94.50
2018-02-02T21:10:55.202Z,94.50
2018-02-02T21:13:24.184Z,94.50
2018-02-02T21:15:52.889Z,94.50
2018-02-02T21:18:22.455Z,94.60
2018-02-02T21:20:51.181Z,94.60
2018-02-02T21:23:19.884Z,94.70
2018-02-02T21:25:48.619Z,94.80
2018-02-02T21:28:17.166Z,94.90
2018-02-02T21:30:45.932Z,94.80
2018-02-02T21:33:14.658Z,94.80
2018-02-02T21:35:44.173Z,94.70
2018-02-02T21:38:12.874Z,94.70
2018-02-02T21:40:41.557Z,94.70
2018-02-02T21:43:10.270Z,94.30
2018-02-02T21:45:38.986Z,94.40
2018-02-02T21:48:09.405Z,94.50
2018-02-02T21:50:38.089Z,94.50
2018-02-02T21:53:07.950Z,94.50
2018-02-02T21:55:37.443Z,94.40
2018-02-02T21:58:06.291Z,94.60
2018-02-02T22:00:35.177Z,94.50
2018-02-02T22:03:03.872Z,94.40
2018-02-02T22:05:31.933Z,94.40
2018-02-02T22:08:02.567Z,94.40
2018-02-02T22:10:31.326Z,94.40
2018-02-02T22:13:00.190Z,94.80
2018-02-02T22:15:28.907Z,94.60
2018-02-02T22:17:59.715Z,94.50
2018-02-02T22:20:29.838Z,94.70
2018-02-02T22:22:58.554Z,94.80
2018-02-02T22:25:27.270Z,94.80
2018-02-02T22:27:56.565Z,94.70
2018-02-02T22:30:26.056Z,94.70
2018-02-02T22:32:54.783Z,94.70
2018-02-02T22:35:23.509Z,94.80
2018-02-02T22:37:52.215Z,94.80
2018-02-02T22:40:20.950Z,94.70
2018-02-02T22:42:48.994Z,94.60
2018-02-02T22:45:17.700Z,94.60
2018-02-02T22:47:46.422Z,94.60
2018-02-02T22:50:15.149Z,94.60
2018-02-02T22:52:44.650Z,94.70
2018-02-02T22:55:13.355Z,94.50
2018-02-02T22:57:42.085Z,94.50
2018-02-02T23:00:10.113Z,94.40
2018-02-02T23:02:39.594Z,94.40
2018-02-02T23:05:07.973Z,94.40
2018-02-02T23:07:36.691Z,94.50
2018-02-02T23:10:06.165Z,94.60
2018-02-02T23:12:34.868Z,94.60
2018-02-02T23:15:03.580Z,94.70
2018-02-02T23:17:32.294Z,94.60
2018-02-02T23:20:01.070Z,94.60
2018-02-02T23:22:29.586Z,94.60
2018-02-02T23:24:58.298Z,94.50
2018-02-02T23:27:26.983Z,94.50
2018-02-02T23:29:56.482Z,94.60
2018-02-02T23:32:25.181Z,94.60
2018-02-02T23:34:53.914Z,94.60
2018-02-02T23:37:22.513Z,94.60
2018-02-02T23:39:51.176Z,94.60
2018-02-02T23:42:19.875Z,94.60
2018-02-02T23:44:48.604Z,94.60
2018-02-02T23:47:17.285Z,94.50
2018-02-02T23:49:45.989Z,94.50
2018-02-02T23:52:14.564Z,94.60
2018-02-02T23:54:44.039Z,94.50
2018-02-02T23:57:13.337Z,94.60
2018-02-02T23:59:42.070Z,94.60
